sensor_id;sensor_type;location;lat;lon;timestamp;P1;durP1;ratioP1;P2;durP2;ratioP2
26375;SDS011;30544;42.196;24.336;2023-05-23T00:00:34;29.67;;;7.43;;
26375;SDS011;30544;42.196;24.336;2023-05-23T00:03:01;31.75;;;7.43;;
26375;SDS011;30544;42.196;24.336;2023-05-23T00:05:29;37.30;;;8.05;;
26375;SDS011;30544;42.196;24.336;2023-05-23T00:07:55;38.92;;;8.95;;
26375;SDS011;30544;42.196;24.336;2023-05-23T00:10:22;36.17;;;9.02;;
26375;SDS011;30544;42.196;24.336;2023-05-23T00:12:48;35.83;;;10.32;;
26375;SDS011;30544;42.196;24.336;2023-05-23T00:15:15;41.90;;;14.52;;
26375;SDS011;30544;42.196;24.336;2023-05-23T00:17:41;38.58;;;11.23;;
26375;SDS011;30544;42.196;24.336;2023-05-23T00:20:09;28.88;;;9.43;;
26375;SDS011;30544;42.196;24.336;2023-05-23T00:22:37;49.30;;;33.75;;
26375;SDS011;30544;42.196;24.336;2023-05-23T00:25:07;40.70;;;20.95;;
26375;SDS011;30544;42.196;24.336;2023-05-23T00:27:33;35.58;;;13.25;;
26375;SDS011;30544;42.196;24.336;2023-05-23T00:30:00;35.95;;;13.35;;
26375;SDS011;30544;42.196;24.336;2023-05-23T00:32:26;38.28;;;12.32;;
26375;SDS011;30544;42.196;24.336;2023-05-23T00:34:53;43.92;;;12.02;;
26375;SDS011;30544;42.196;24.336;2023-05-23T00:37:20;39.97;;;11.73;;
26375;SDS011;30544;42.196;24.336;2023-05-23T00:39:48;136.07;;;121.50;;
26375;SDS011;30544;42.196;24.336;2023-05-23T00:42:14;147.07;;;130.90;;
26375;SDS011;30544;42.196;24.336;2023-05-23T00:44:41;133.35;;;120.00;;
26375;SDS011;30544;42.196;24.336;2023-05-23T00:47:07;129.05;;;116.70;;
26375;SDS011;30544;42.196;24.336;2023-05-23T00:49:35;102.60;;;92.00;;
26375;SDS011;30544;42.196;24.336;2023-05-23T00:52:01;78.10;;;70.22;;
26375;SDS011;30544;42.196;24.336;2023-05-23T00:54:28;44.38;;;23.17;;
26375;SDS011;30544;42.196;24.336;2023-05-23T00:56:57;32.17;;;10.50;;
26375;SDS011;30544;42.196;24.336;2023-05-23T00:59:24;44.72;;;13.82;;
26375;SDS011;30544;42.196;24.336;2023-05-23T01:01:51;41.05;;;14.68;;
26375;SDS011;30544;42.196;24.336;2023-05-23T01:04:18;41.58;;;12.93;;
26375;SDS011;30544;42.196;24.336;2023-05-23T01:06:45;39.38;;;11.82;;
26375;SDS011;30544;42.196;24.336;2023-05-23T01:09:13;48.85;;;23.17;;
26375;SDS011;30544;42.196;24.336;2023-05-23T01:11:41;33.28;;;14.60;;
26375;SDS011;30544;42.196;24.336;2023-05-23T01:14:12;25.73;;;9.32;;
26375;SDS011;30544;42.196;24.336;2023-05-23T01:16:41;35.70;;;8.02;;
26375;SDS011;30544;42.196;24.336;2023-05-23T01:19:16;31.92;;;8.68;;
26375;SDS011;30544;42.196;24.336;2023-05-23T01:24:21;29.27;;;8.63;;
26375;SDS011;30544;42.196;24.336;2023-05-23T01:27:01;25.58;;;7.50;;
26375;SDS011;30544;42.196;24.336;2023-05-23T01:29:33;32.67;;;16.15;;
26375;SDS011;30544;42.196;24.336;2023-05-23T01:32:00;35.95;;;16.88;;
26375;SDS011;30544;42.196;24.336;2023-05-23T01:34:27;51.45;;;36.20;;
26375;SDS011;30544;42.196;24.336;2023-05-23T01:36:54;105.32;;;94.88;;
26375;SDS011;30544;42.196;24.336;2023-05-23T01:39:20;112.57;;;99.22;;
26375;SDS011;30544;42.196;24.336;2023-05-23T01:41:47;96.70;;;86.47;;
26375;SDS011;30544;42.196;24.336;2023-05-23T01:44:14;80.70;;;72.85;;
26375;SDS011;30544;42.196;24.336;2023-05-23T01:46:42;128.75;;;113.07;;
26375;SDS011;30544;42.196;24.336;2023-05-23T01:49:10;114.68;;;103.53;;
26375;SDS011;30544;42.196;24.336;2023-05-23T01:51:36;43.72;;;39.10;;
26375;SDS011;30544;42.196;24.336;2023-05-23T01:54:03;131.57;;;118.50;;
26375;SDS011;30544;42.196;24.336;2023-05-23T01:56:30;95.00;;;85.90;;
26375;SDS011;30544;42.196;24.336;2023-05-23T01:58:56;73.93;;;58.63;;
26375;SDS011;30544;42.196;24.336;2023-05-23T02:01:23;147.23;;;126.22;;
26375;SDS011;30544;42.196;24.336;2023-05-23T02:03:51;138.77;;;123.25;;
26375;SDS011;30544;42.196;24.336;2023-05-23T02:06:17;137.35;;;122.78;;
26375;SDS011;30544;42.196;24.336;2023-05-23T02:08:44;92.75;;;83.68;;
26375;SDS011;30544;42.196;24.336;2023-05-23T02:11:10;128.82;;;116.05;;
26375;SDS011;30544;42.196;24.336;2023-05-23T02:13:37;140.45;;;125.43;;
26375;SDS011;30544;42.196;24.336;2023-05-23T02:16:03;235.88;;;164.02;;
26375;SDS011;30544;42.196;24.336;2023-05-23T02:18:30;320.67;;;181.38;;
26375;SDS011;30544;42.196;24.336;2023-05-23T02:20:58;249.13;;;176.02;;
26375;SDS011;30544;42.196;24.336;2023-05-23T02:23:24;302.05;;;184.77;;
26375;SDS011;30544;42.196;24.336;2023-05-23T02:25:51;342.63;;;180.95;;
26375;SDS011;30544;42.196;24.336;2023-05-23T02:28:17;314.95;;;183.98;;
26375;SDS011;30544;42.196;24.336;2023-05-23T02:30:44;362.83;;;191.02;;
26375;SDS011;30544;42.196;24.336;2023-05-23T02:33:10;263.52;;;171.10;;
26375;SDS011;30544;42.196;24.336;2023-05-23T02:35:37;228.88;;;169.77;;
26375;SDS011;30544;42.196;24.336;2023-05-23T02:38:05;238.57;;;163.50;;
26375;SDS011;30544;42.196;24.336;2023-05-23T02:40:31;172.48;;;148.15;;
26375;SDS011;30544;42.196;24.336;2023-05-23T02:42:58;146.82;;;130.23;;
26375;SDS011;30544;42.196;24.336;2023-05-23T02:45:24;397.60;;;186.93;;
26375;SDS011;30544;42.196;24.336;2023-05-23T02:47:51;320.10;;;177.48;;
26375;SDS011;30544;42.196;24.336;2023-05-23T02:50:17;193.15;;;143.98;;
26375;SDS011;30544;42.196;24.336;2023-05-23T02:52:44;76.55;;;68.65;;
26375;SDS011;30544;42.196;24.336;2023-05-23T02:55:12;78.35;;;70.35;;
26375;SDS011;30544;42.196;24.336;2023-05-23T02:57:38;45.15;;;19.05;;
26375;SDS011;30544;42.196;24.336;2023-05-23T03:00:05;150.00;;;132.80;;
26375;SDS011;30544;42.196;24.336;2023-05-23T03:02:33;35.50;;;21.33;;
26375;SDS011;30544;42.196;24.336;2023-05-23T03:05:00;100.65;;;91.07;;
26375;SDS011;30544;42.196;24.336;2023-05-23T03:07:27;43.63;;;11.90;;
26375;SDS011;30544;42.196;24.336;2023-05-23T03:09:54;22.90;;;7.68;;
26375;SDS011;30544;42.196;24.336;2023-05-23T03:12:22;282.67;;;167.40;;
26375;SDS011;30544;42.196;24.336;2023-05-23T03:14:48;45.22;;;21.00;;
26375;SDS011;30544;42.196;24.336;2023-05-23T03:17:15;29.35;;;9.02;;
26375;SDS011;30544;42.196;24.336;2023-05-23T03:19:41;39.03;;;9.88;;
26375;SDS011;30544;42.196;24.336;2023-05-23T03:22:08;28.70;;;7.80;;
26375;SDS011;30544;42.196;24.336;2023-05-23T03:24:34;27.23;;;7.95;;
26375;SDS011;30544;42.196;24.336;2023-05-23T03:27:01;65.18;;;41.00;;
26375;SDS011;30544;42.196;24.336;2023-05-23T03:29:29;175.45;;;122.95;;
26375;SDS011;30544;42.196;24.336;2023-05-23T03:31:56;32.33;;;9.38;;
26375;SDS011;30544;42.196;24.336;2023-05-23T03:34:23;23.30;;;7.60;;
26375;SDS011;30544;42.196;24.336;2023-05-23T03:36:50;31.23;;;9.05;;
26375;SDS011;30544;42.196;24.336;2023-05-23T03:39:17;24.70;;;8.52;;
26375;SDS011;30544;42.196;24.336;2023-05-23T03:41:43;22.02;;;7.93;;
26375;SDS011;30544;42.196;24.336;2023-05-23T03:44:10;18.30;;;6.93;;
26375;SDS011;30544;42.196;24.336;2023-05-23T03:46:38;15.52;;;6.32;;
26375;SDS011;30544;42.196;24.336;2023-05-23T03:49:04;15.57;;;6.40;;
26375;SDS011;30544;42.196;24.336;2023-05-23T03:51:31;19.55;;;7.05;;
26375;SDS011;30544;42.196;24.336;2023-05-23T03:53:57;17.40;;;7.07;;
26375;SDS011;30544;42.196;24.336;2023-05-23T03:56:23;20.55;;;7.30;;
26375;SDS011;30544;42.196;24.336;2023-05-23T03:58:50;16.70;;;6.07;;
26375;SDS011;30544;42.196;24.336;2023-05-23T04:01:16;16.33;;;7.15;;
26375;SDS011;30544;42.196;24.336;2023-05-23T04:03:44;13.82;;;5.60;;
26375;SDS011;30544;42.196;24.336;2023-05-23T04:06:12;15.98;;;6.80;;
26375;SDS011;30544;42.196;24.336;2023-05-23T04:08:38;21.17;;;6.30;;
26375;SDS011;30544;42.196;24.336;2023-05-23T04:11:06;349.50;;;257.60;;
26375;SDS011;30544;42.196;24.336;2023-05-23T04:13:32;405.33;;;280.05;;
26375;SDS011;30544;42.196;24.336;2023-05-23T04:15:59;95.78;;;86.47;;
26375;SDS011;30544;42.196;24.336;2023-05-23T04:18:29;37.65;;;7.95;;
26375;SDS011;30544;42.196;24.336;2023-05-23T04:20:58;27.00;;;7.85;;
26375;SDS011;30544;42.196;24.336;2023-05-23T04:23:25;12.68;;;5.95;;
26375;SDS011;30544;42.196;24.336;2023-05-23T04:25:51;12.50;;;6.03;;
26375;SDS011;30544;42.196;24.336;2023-05-23T04:28:18;18.05;;;5.15;;
26375;SDS011;30544;42.196;24.336;2023-05-23T04:30:44;11.40;;;4.85;;
26375;SDS011;30544;42.196;24.336;2023-05-23T04:33:13;11.32;;;5.00;;
26375;SDS011;30544;42.196;24.336;2023-05-23T04:35:41;8.30;;;4.78;;
26375;SDS011;30544;42.196;24.336;2023-05-23T04:38:09;9.23;;;3.95;;
26375;SDS011;30544;42.196;24.336;2023-05-23T04:40:37;10.80;;;4.13;;
26375;SDS011;30544;42.196;24.336;2023-05-23T04:43:04;10.00;;;4.32;;
26375;SDS011;30544;42.196;24.336;2023-05-23T04:45:30;27.50;;;7.22;;
26375;SDS011;30544;42.196;24.336;2023-05-23T04:47:57;10.57;;;3.85;;
26375;SDS011;30544;42.196;24.336;2023-05-23T04:50:23;5.82;;;3.47;;
26375;SDS011;30544;42.196;24.336;2023-05-23T04:52:50;11.27;;;3.13;;
26375;SDS011;30544;42.196;24.336;2023-05-23T04:55:18;6.47;;;2.88;;
26375;SDS011;30544;42.196;24.336;2023-05-23T04:57:44;5.18;;;3.20;;
26375;SDS011;30544;42.196;24.336;2023-05-23T05:00:11;9.70;;;3.10;;
26375;SDS011;30544;42.196;24.336;2023-05-23T05:02:39;12.02;;;3.30;;
26375;SDS011;30544;42.196;24.336;2023-05-23T05:05:07;8.23;;;3.35;;
26375;SDS011;30544;42.196;24.336;2023-05-23T05:07:34;7.35;;;3.28;;
26375;SDS011;30544;42.196;24.336;2023-05-23T05:10:01;9.10;;;3.08;;
26375;SDS011;30544;42.196;24.336;2023-05-23T05:12:29;9.25;;;4.32;;
26375;SDS011;30544;42.196;24.336;2023-05-23T05:14:55;10.63;;;4.10;;
26375;SDS011;30544;42.196;24.336;2023-05-23T05:17:22;5.55;;;3.58;;
26375;SDS011;30544;42.196;24.336;2023-05-23T05:19:48;6.55;;;3.35;;
26375;SDS011;30544;42.196;24.336;2023-05-23T05:22:15;4.68;;;3.10;;
26375;SDS011;30544;42.196;24.336;2023-05-23T05:24:42;8.57;;;3.80;;
26375;SDS011;30544;42.196;24.336;2023-05-23T05:27:08;6.03;;;3.30;;
26375;SDS011;30544;42.196;24.336;2023-05-23T05:29:37;8.07;;;3.05;;
26375;SDS011;30544;42.196;24.336;2023-05-23T05:32:04;13.80;;;3.60;;
26375;SDS011;30544;42.196;24.336;2023-05-23T05:34:33;7.32;;;3.15;;
26375;SDS011;30544;42.196;24.336;2023-05-23T05:36:59;5.95;;;3.10;;
26375;SDS011;30544;42.196;24.336;2023-05-23T05:39:26;15.18;;;3.50;;
26375;SDS011;30544;42.196;24.336;2023-05-23T05:41:52;9.32;;;3.40;;
26375;SDS011;30544;42.196;24.336;2023-05-23T05:44:20;9.82;;;4.00;;
26375;SDS011;30544;42.196;24.336;2023-05-23T05:46:48;11.05;;;3.95;;
26375;SDS011;30544;42.196;24.336;2023-05-23T05:49:14;7.05;;;3.63;;
26375;SDS011;30544;42.196;24.336;2023-05-23T05:51:41;5.85;;;3.45;;
26375;SDS011;30544;42.196;24.336;2023-05-23T05:54:07;5.55;;;3.70;;
26375;SDS011;30544;42.196;24.336;2023-05-23T05:56:34;7.32;;;3.92;;
26375;SDS011;30544;42.196;24.336;2023-05-23T05:59:00;5.90;;;3.45;;
26375;SDS011;30544;42.196;24.336;2023-05-23T06:01:27;8.80;;;4.80;;
26375;SDS011;30544;42.196;24.336;2023-05-23T06:03:56;11.73;;;3.83;;
26375;SDS011;30544;42.196;24.336;2023-05-23T06:06:23;12.50;;;3.63;;
26375;SDS011;30544;42.196;24.336;2023-05-23T06:08:50;8.43;;;3.55;;
26375;SDS011;30544;42.196;24.336;2023-05-23T06:11:17;20.13;;;3.85;;
26375;SDS011;30544;42.196;24.336;2023-05-23T06:13:44;6.25;;;3.60;;
26375;SDS011;30544;42.196;24.336;2023-05-23T06:16:10;9.90;;;4.95;;
26375;SDS011;30544;42.196;24.336;2023-05-23T06:18:37;11.35;;;5.32;;
26375;SDS011;30544;42.196;24.336;2023-05-23T06:21:05;7.13;;;4.47;;
26375;SDS011;30544;42.196;24.336;2023-05-23T06:23:31;5.57;;;3.97;;
26375;SDS011;30544;42.196;24.336;2023-05-23T06:25:58;7.15;;;4.20;;
26375;SDS011;30544;42.196;24.336;2023-05-23T06:28:24;7.13;;;3.75;;
26375;SDS011;30544;42.196;24.336;2023-05-23T06:30:51;9.57;;;4.22;;
26375;SDS011;30544;42.196;24.336;2023-05-23T06:33:17;10.00;;;4.07;;
26375;SDS011;30544;42.196;24.336;2023-05-23T06:35:44;12.77;;;4.30;;
26375;SDS011;30544;42.196;24.336;2023-05-23T06:38:12;9.60;;;4.20;;
26375;SDS011;30544;42.196;24.336;2023-05-23T06:40:38;13.88;;;4.55;;
26375;SDS011;30544;42.196;24.336;2023-05-23T06:43:05;9.18;;;4.18;;
26375;SDS011;30544;42.196;24.336;2023-05-23T06:45:31;8.63;;;4.05;;
26375;SDS011;30544;42.196;24.336;2023-05-23T06:47:59;8.10;;;4.25;;
26375;SDS011;30544;42.196;24.336;2023-05-23T06:50:26;7.30;;;4.13;;
26375;SDS011;30544;42.196;24.336;2023-05-23T06:52:52;12.30;;;4.35;;
26375;SDS011;30544;42.196;24.336;2023-05-23T06:55:20;12.23;;;4.60;;
26375;SDS011;30544;42.196;24.336;2023-05-23T06:57:47;9.05;;;4.25;;
26375;SDS011;30544;42.196;24.336;2023-05-23T07:00:16;5.78;;;3.60;;
26375;SDS011;30544;42.196;24.336;2023-05-23T07:02:43;10.20;;;3.67;;
26375;SDS011;30544;42.196;24.336;2023-05-23T07:05:12;9.70;;;4.47;;
26375;SDS011;30544;42.196;24.336;2023-05-23T07:07:39;9.02;;;4.20;;
26375;SDS011;30544;42.196;24.336;2023-05-23T07:10:06;5.85;;;3.92;;
26375;SDS011;30544;42.196;24.336;2023-05-23T07:12:33;10.55;;;4.00;;
26375;SDS011;30544;42.196;24.336;2023-05-23T07:15:00;7.18;;;4.30;;
26375;SDS011;30544;42.196;24.336;2023-05-23T07:17:27;8.00;;;4.10;;
26375;SDS011;30544;42.196;24.336;2023-05-23T07:19:54;11.02;;;4.25;;
26375;SDS011;30544;42.196;24.336;2023-05-23T07:22:20;9.70;;;5.28;;
26375;SDS011;30544;42.196;24.336;2023-05-23T07:24:47;11.35;;;5.50;;
26375;SDS011;30544;42.196;24.336;2023-05-23T07:27:13;7.47;;;4.40;;
26375;SDS011;30544;42.196;24.336;2023-05-23T07:29:41;336.63;;;98.18;;
26375;SDS011;30544;42.196;24.336;2023-05-23T07:32:08;109.72;;;36.65;;
26375;SDS011;30544;42.196;24.336;2023-05-23T07:34:34;32.05;;;13.65;;
26375;SDS011;30544;42.196;24.336;2023-05-23T07:37:01;17.23;;;5.30;;
26375;SDS011;30544;42.196;24.336;2023-05-23T07:39:28;9.13;;;4.35;;
26375;SDS011;30544;42.196;24.336;2023-05-23T07:41:54;14.75;;;5.57;;
26375;SDS011;30544;42.196;24.336;2023-05-23T07:44:21;8.05;;;4.05;;
26375;SDS011;30544;42.196;24.336;2023-05-23T07:46:48;9.82;;;4.13;;
26375;SDS011;30544;42.196;24.336;2023-05-23T07:49:15;14.07;;;7.60;;
26375;SDS011;30544;42.196;24.336;2023-05-23T07:51:41;12.95;;;5.75;;
26375;SDS011;30544;42.196;24.336;2023-05-23T07:54:08;6.40;;;3.80;;
26375;SDS011;30544;42.196;24.336;2023-05-23T07:56:34;9.15;;;4.28;;
26375;SDS011;30544;42.196;24.336;2023-05-23T07:59:05;12.77;;;4.65;;
26375;SDS011;30544;42.196;24.336;2023-05-23T08:01:32;13.45;;;4.53;;
26375;SDS011;30544;42.196;24.336;2023-05-23T08:04:00;7.68;;;3.88;;
26375;SDS011;30544;42.196;24.336;2023-05-23T08:06:27;9.35;;;4.15;;
26375;SDS011;30544;42.196;24.336;2023-05-23T08:08:55;7.63;;;4.70;;
26375;SDS011;30544;42.196;24.336;2023-05-23T08:11:22;6.70;;;3.90;;
26375;SDS011;30544;42.196;24.336;2023-05-23T08:13:49;10.80;;;5.13;;
26375;SDS011;30544;42.196;24.336;2023-05-23T08:16:15;18.05;;;6.38;;
26375;SDS011;30544;42.196;24.336;2023-05-23T08:18:42;8.50;;;4.88;;
26375;SDS011;30544;42.196;24.336;2023-05-23T08:21:10;6.15;;;4.68;;
26375;SDS011;30544;42.196;24.336;2023-05-23T08:23:36;12.05;;;4.15;;
26375;SDS011;30544;42.196;24.336;2023-05-23T08:26:03;8.32;;;3.95;;
26375;SDS011;30544;42.196;24.336;2023-05-23T08:28:29;15.48;;;4.40;;
26375;SDS011;30544;42.196;24.336;2023-05-23T08:30:58;8.18;;;4.28;;
26375;SDS011;30544;42.196;24.336;2023-05-23T08:33:25;9.10;;;3.95;;
26375;SDS011;30544;42.196;24.336;2023-05-23T08:35:51;9.98;;;3.83;;
26375;SDS011;30544;42.196;24.336;2023-05-23T08:38:20;6.30;;;3.75;;
26375;SDS011;30544;42.196;24.336;2023-05-23T08:40:48;12.88;;;4.10;;
26375;SDS011;30544;42.196;24.336;2023-05-23T08:43:15;9.48;;;4.25;;
26375;SDS011;30544;42.196;24.336;2023-05-23T08:45:41;11.18;;;4.57;;
26375;SDS011;30544;42.196;24.336;2023-05-23T08:48:08;11.35;;;4.10;;
26375;SDS011;30544;42.196;24.336;2023-05-23T08:50:38;14.85;;;4.53;;
26375;SDS011;30544;42.196;24.336;2023-05-23T08:53:05;10.98;;;4.35;;
26375;SDS011;30544;42.196;24.336;2023-05-23T08:55:36;7.03;;;4.10;;
26375;SDS011;30544;42.196;24.336;2023-05-23T08:58:02;8.95;;;4.00;;
26375;SDS011;30544;42.196;24.336;2023-05-23T09:00:29;8.82;;;4.65;;
26375;SDS011;30544;42.196;24.336;2023-05-23T09:02:57;8.07;;;3.92;;
26375;SDS011;30544;42.196;24.336;2023-05-23T09:05:23;9.77;;;4.03;;
26375;SDS011;30544;42.196;24.336;2023-05-23T09:07:51;8.38;;;4.22;;
26375;SDS011;30544;42.196;24.336;2023-05-23T09:10:19;7.75;;;4.28;;
26375;SDS011;30544;42.196;24.336;2023-05-23T09:12:47;13.75;;;4.90;;
26375;SDS011;30544;42.196;24.336;2023-05-23T09:15:13;12.85;;;4.40;;
26375;SDS011;30544;42.196;24.336;2023-05-23T09:17:41;7.85;;;4.25;;
26375;SDS011;30544;42.196;24.336;2023-05-23T09:20:09;12.48;;;4.60;;
26375;SDS011;30544;42.196;24.336;2023-05-23T09:22:36;10.02;;;4.20;;
26375;SDS011;30544;42.196;24.336;2023-05-23T09:25:03;9.35;;;3.70;;
26375;SDS011;30544;42.196;24.336;2023-05-23T09:27:30;10.48;;;4.63;;
26375;SDS011;30544;42.196;24.336;2023-05-23T09:29:58;7.35;;;4.10;;
26375;SDS011;30544;42.196;24.336;2023-05-23T09:32:30;11.30;;;4.38;;
26375;SDS011;30544;42.196;24.336;2023-05-23T09:34:57;13.73;;;4.72;;
26375;SDS011;30544;42.196;24.336;2023-05-23T09:37:28;6.28;;;3.90;;
26375;SDS011;30544;42.196;24.336;2023-05-23T09:39:55;13.52;;;4.53;;
26375;SDS011;30544;42.196;24.336;2023-05-23T09:42:22;45.92;;;18.15;;
26375;SDS011;30544;42.196;24.336;2023-05-23T09:44:48;22.75;;;10.27;;
26375;SDS011;30544;42.196;24.336;2023-05-23T09:47:16;10.82;;;5.57;;
26375;SDS011;30544;42.196;24.336;2023-05-23T09:49:44;7.60;;;4.13;;
26375;SDS011;30544;42.196;24.336;2023-05-23T09:52:10;54.97;;;20.98;;
26375;SDS011;30544;42.196;24.336;2023-05-23T09:54:37;110.32;;;51.72;;
26375;SDS011;30544;42.196;24.336;2023-05-23T09:57:04;10.20;;;4.30;;
26375;SDS011;30544;42.196;24.336;2023-05-23T09:59:32;9.98;;;4.57;;
26375;SDS011;30544;42.196;24.336;2023-05-23T10:02:01;13.38;;;4.40;;
26375;SDS011;30544;42.196;24.336;2023-05-23T10:04:29;12.35;;;5.35;;
26375;SDS011;30544;42.196;24.336;2023-05-23T10:06:57;13.68;;;5.15;;
26375;SDS011;30544;42.196;24.336;2023-05-23T10:09:26;17.63;;;7.07;;
26375;SDS011;30544;42.196;24.336;2023-05-23T10:12:31;18.40;;;5.18;;
26375;SDS011;30544;42.196;24.336;2023-05-23T10:15:03;9.02;;;5.10;;
26375;SDS011;30544;42.196;24.336;2023-05-23T10:17:32;26.70;;;7.32;;
26375;SDS011;30544;42.196;24.336;2023-05-23T10:20:08;36.88;;;12.85;;
26375;SDS011;30544;42.196;24.336;2023-05-23T10:22:36;20.02;;;9.40;;
26375;SDS011;30544;42.196;24.336;2023-05-23T10:25:03;27.55;;;8.27;;
26375;SDS011;30544;42.196;24.336;2023-05-23T10:27:30;18.90;;;7.00;;
26375;SDS011;30544;42.196;24.336;2023-05-23T10:29:58;18.42;;;5.28;;
26375;SDS011;30544;42.196;24.336;2023-05-23T10:32:25;10.88;;;5.28;;
26375;SDS011;30544;42.196;24.336;2023-05-23T10:34:53;12.40;;;5.70;;
26375;SDS011;30544;42.196;24.336;2023-05-23T10:37:26;11.85;;;7.20;;
26375;SDS011;30544;42.196;24.336;2023-05-23T10:39:56;19.67;;;10.38;;
26375;SDS011;30544;42.196;24.336;2023-05-23T10:42:27;14.95;;;8.27;;
26375;SDS011;30544;42.196;24.336;2023-05-23T10:47:38;14.70;;;6.65;;
26375;SDS011;30544;42.196;24.336;2023-05-23T10:50:05;13.10;;;5.75;;
26375;SDS011;30544;42.196;24.336;2023-05-23T10:52:37;11.38;;;4.97;;
26375;SDS011;30544;42.196;24.336;2023-05-23T10:55:08;11.50;;;6.13;;
26375;SDS011;30544;42.196;24.336;2023-05-23T10:57:37;12.93;;;5.63;;
26375;SDS011;30544;42.196;24.336;2023-05-23T11:00:10;8.85;;;5.20;;
26375;SDS011;30544;42.196;24.336;2023-05-23T11:02:37;14.35;;;4.50;;
26375;SDS011;30544;42.196;24.336;2023-05-23T11:05:19;8.27;;;5.22;;
26375;SDS011;30544;42.196;24.336;2023-05-23T11:07:54;7.30;;;4.03;;
26375;SDS011;30544;42.196;24.336;2023-05-23T11:10:31;11.70;;;4.70;;
26375;SDS011;30544;42.196;24.336;2023-05-23T11:13:04;10.35;;;4.68;;
26375;SDS011;30544;42.196;24.336;2023-05-23T11:15:40;8.70;;;3.50;;
26375;SDS011;30544;42.196;24.336;2023-05-23T11:18:06;9.98;;;4.65;;
26375;SDS011;30544;42.196;24.336;2023-05-23T11:20:33;14.05;;;5.97;;
26375;SDS011;30544;42.196;24.336;2023-05-23T11:23:01;23.13;;;6.07;;
26375;SDS011;30544;42.196;24.336;2023-05-23T11:25:41;12.25;;;4.50;;
26375;SDS011;30544;42.196;24.336;2023-05-23T11:28:08;18.38;;;4.05;;
26375;SDS011;30544;42.196;24.336;2023-05-23T11:30:34;9.80;;;4.38;;
26375;SDS011;30544;42.196;24.336;2023-05-23T11:33:05;15.57;;;3.70;;
26375;SDS011;30544;42.196;24.336;2023-05-23T11:35:32;6.07;;;3.55;;
26375;SDS011;30544;42.196;24.336;2023-05-23T11:37:59;13.07;;;3.78;;
26375;SDS011;30544;42.196;24.336;2023-05-23T11:40:28;11.23;;;3.70;;
26375;SDS011;30544;42.196;24.336;2023-05-23T11:42:55;10.60;;;3.65;;
26375;SDS011;30544;42.196;24.336;2023-05-23T11:45:22;5.03;;;3.25;;
26375;SDS011;30544;42.196;24.336;2023-05-23T11:47:49;5.38;;;2.90;;
26375;SDS011;30544;42.196;24.336;2023-05-23T11:50:15;7.80;;;3.30;;
26375;SDS011;30544;42.196;24.336;2023-05-23T11:52:42;8.77;;;3.00;;
26375;SDS011;30544;42.196;24.336;2023-05-23T11:55:15;23.50;;;4.47;;
26375;SDS011;30544;42.196;24.336;2023-05-23T11:57:43;9.02;;;3.65;;
26375;SDS011;30544;42.196;24.336;2023-05-23T12:00:10;4.68;;;3.00;;
26375;SDS011;30544;42.196;24.336;2023-05-23T12:02:37;11.48;;;3.55;;
26375;SDS011;30544;42.196;24.336;2023-05-23T12:05:06;10.75;;;3.38;;
26375;SDS011;30544;42.196;24.336;2023-05-23T12:07:33;12.55;;;3.75;;
26375;SDS011;30544;42.196;24.336;2023-05-23T12:10:01;11.38;;;3.75;;
26375;SDS011;30544;42.196;24.336;2023-05-23T12:12:27;6.68;;;3.67;;
26375;SDS011;30544;42.196;24.336;2023-05-23T12:14:55;11.50;;;4.82;;
26375;SDS011;30544;42.196;24.336;2023-05-23T12:17:22;9.63;;;4.20;;
26375;SDS011;30544;42.196;24.336;2023-05-23T12:19:49;7.03;;;3.80;;
26375;SDS011;30544;42.196;24.336;2023-05-23T12:22:21;13.63;;;3.63;;
26375;SDS011;30544;42.196;24.336;2023-05-23T12:24:47;13.25;;;5.60;;
26375;SDS011;30544;42.196;24.336;2023-05-23T12:27:14;7.90;;;4.07;;
26375;SDS011;30544;42.196;24.336;2023-05-23T12:29:41;8.93;;;4.65;;
26375;SDS011;30544;42.196;24.336;2023-05-23T12:32:09;14.80;;;5.45;;
26375;SDS011;30544;42.196;24.336;2023-05-23T12:34:39;7.85;;;4.55;;
26375;SDS011;30544;42.196;24.336;2023-05-23T12:37:06;6.95;;;3.70;;
26375;SDS011;30544;42.196;24.336;2023-05-23T12:39:33;6.60;;;3.30;;
26375;SDS011;30544;42.196;24.336;2023-05-23T12:42:07;4.32;;;3.28;;
26375;SDS011;30544;42.196;24.336;2023-05-23T12:44:34;8.18;;;3.80;;
26375;SDS011;30544;42.196;24.336;2023-05-23T12:47:01;13.60;;;4.32;;
26375;SDS011;30544;42.196;24.336;2023-05-23T12:49:29;7.97;;;3.83;;
26375;SDS011;30544;42.196;24.336;2023-05-23T12:51:55;6.57;;;3.60;;
26375;SDS011;30544;42.196;24.336;2023-05-23T12:54:22;7.75;;;3.22;;
26375;SDS011;30544;42.196;24.336;2023-05-23T12:56:48;5.30;;;3.33;;
26375;SDS011;30544;42.196;24.336;2023-05-23T12:59:15;6.65;;;3.30;;
26375;SDS011;30544;42.196;24.336;2023-05-23T13:01:41;15.35;;;3.67;;
26375;SDS011;30544;42.196;24.336;2023-05-23T13:04:08;5.97;;;3.83;;
26375;SDS011;30544;42.196;24.336;2023-05-23T13:06:36;6.65;;;3.53;;
26375;SDS011;30544;42.196;24.336;2023-05-23T13:09:02;7.93;;;3.58;;
26375;SDS011;30544;42.196;24.336;2023-05-23T13:11:29;5.13;;;3.53;;
26375;SDS011;30544;42.196;24.336;2023-05-23T13:13:56;6.80;;;3.53;;
26375;SDS011;30544;42.196;24.336;2023-05-23T13:16:23;6.22;;;3.72;;
26375;SDS011;30544;42.196;24.336;2023-05-23T13:18:49;5.82;;;3.95;;
26375;SDS011;30544;42.196;24.336;2023-05-23T13:21:15;7.43;;;3.55;;
26375;SDS011;30544;42.196;24.336;2023-05-23T13:23:43;6.60;;;3.95;;
26375;SDS011;30544;42.196;24.336;2023-05-23T13:26:10;7.55;;;3.95;;
26375;SDS011;30544;42.196;24.336;2023-05-23T13:28:38;8.68;;;3.20;;
26375;SDS011;30544;42.196;24.336;2023-05-23T13:31:05;7.32;;;3.63;;
26375;SDS011;30544;42.196;24.336;2023-05-23T13:33:31;10.07;;;4.07;;
26375;SDS011;30544;42.196;24.336;2023-05-23T13:35:57;7.57;;;3.72;;
26375;SDS011;30544;42.196;24.336;2023-05-23T13:38:24;5.53;;;3.65;;
26375;SDS011;30544;42.196;24.336;2023-05-23T13:40:53;12.65;;;3.72;;
26375;SDS011;30544;42.196;24.336;2023-05-23T13:43:19;6.97;;;3.30;;
26375;SDS011;30544;42.196;24.336;2023-05-23T13:45:46;6.97;;;3.97;;
26375;SDS011;30544;42.196;24.336;2023-05-23T13:48:12;10.07;;;3.75;;
26375;SDS011;30544;42.196;24.336;2023-05-23T13:50:39;5.43;;;3.50;;
26375;SDS011;30544;42.196;24.336;2023-05-23T13:53:05;7.95;;;4.35;;
26375;SDS011;30544;42.196;24.336;2023-05-23T13:55:38;9.80;;;3.33;;
26375;SDS011;30544;42.196;24.336;2023-05-23T13:58:06;4.95;;;3.20;;
26375;SDS011;30544;42.196;24.336;2023-05-23T14:00:32;8.65;;;3.50;;
26375;SDS011;30544;42.196;24.336;2023-05-23T14:02:59;8.27;;;4.35;;
26375;SDS011;30544;42.196;24.336;2023-05-23T14:05:25;11.55;;;3.47;;
26375;SDS011;30544;42.196;24.336;2023-05-23T14:07:52;5.47;;;3.13;;
26375;SDS011;30544;42.196;24.336;2023-05-23T14:10:18;8.20;;;3.40;;
26375;SDS011;30544;42.196;24.336;2023-05-23T14:12:45;4.18;;;2.65;;
26375;SDS011;30544;42.196;24.336;2023-05-23T14:15:13;5.28;;;3.22;;
26375;SDS011;30544;42.196;24.336;2023-05-23T14:17:39;9.70;;;3.30;;
26375;SDS011;30544;42.196;24.336;2023-05-23T14:20:06;9.75;;;3.50;;
26375;SDS011;30544;42.196;24.336;2023-05-23T14:22:33;5.32;;;3.50;;
26375;SDS011;30544;42.196;24.336;2023-05-23T14:24:59;10.25;;;3.90;;
26375;SDS011;30544;42.196;24.336;2023-05-23T14:27:26;15.30;;;3.10;;